sensor_id;sensor_type;location;lat;lon;timestamp;P1;durP1;ratioP1;P2;durP2;ratioP2
4650;SDS011;2338;49.602;8.722;2022-09-01T00:02:03;3.90;;;3.30;;
4650;SDS011;2338;49.602;8.722;2022-09-01T00:04:52;13.50;;;4.00;;
4650;SDS011;2338;49.602;8.722;2022-09-01T00:07:41;3.80;;;3.20;;
4650;SDS011;2338;49.602;8.722;2022-09-01T00:10:26;4.70;;;3.63;;
4650;SDS011;2338;49.602;8.722;2022-09-01T00:13:12;4.63;;;3.10;;
4650;SDS011;2338;49.602;8.722;2022-09-01T00:15:58;5.00;;;3.60;;
4650;SDS011;2338;49.602;8.722;2022-09-01T00:18:48;5.57;;;3.30;;
4650;SDS011;2338;49.602;8.722;2022-09-01T00:21:38;6.03;;;3.87;;
4650;SDS011;2338;49.602;8.722;2022-09-01T00:24:26;4.50;;;3.30;;
4650;SDS011;2338;49.602;8.722;2022-09-01T00:27:12;5.10;;;3.00;;
4650;SDS011;2338;49.602;8.722;2022-09-01T00:29:57;7.00;;;3.50;;
4650;SDS011;2338;49.602;8.722;2022-09-01T00:32:43;6.50;;;4.07;;
4650;SDS011;2338;49.602;8.722;2022-09-01T00:35:29;4.73;;;3.77;;
4650;SDS011;2338;49.602;8.722;2022-09-01T00:38:16;6.77;;;3.03;;
4650;SDS011;2338;49.602;8.722;2022-09-01T00:41:02;5.70;;;3.60;;
4650;SDS011;2338;49.602;8.722;2022-09-01T00:43:49;4.00;;;3.50;;
4650;SDS011;2338;49.602;8.722;2022-09-01T00:46:37;6.20;;;3.40;;
4650;SDS011;2338;49.602;8.722;2022-09-01T00:49:26;6.50;;;3.53;;
4650;SDS011;2338;49.602;8.722;2022-09-01T00:52:16;5.63;;;3.50;;
4650;SDS011;2338;49.602;8.722;2022-09-01T00:55:09;6.97;;;4.10;;
4650;SDS011;2338;49.602;8.722;2022-09-01T00:57:58;4.43;;;3.87;;
4650;SDS011;2338;49.602;8.722;2022-09-01T01:00:44;5.80;;;3.70;;
4650;SDS011;2338;49.602;8.722;2022-09-01T01:03:32;9.10;;;3.90;;
4650;SDS011;2338;49.602;8.722;2022-09-01T01:06:18;5.77;;;4.07;;
4650;SDS011;2338;49.602;8.722;2022-09-01T01:09:09;8.20;;;4.07;;
4650;SDS011;2338;49.602;8.722;2022-09-01T01:11:57;6.03;;;3.83;;
4650;SDS011;2338;49.602;8.722;2022-09-01T01:14:44;6.40;;;3.80;;
4650;SDS011;2338;49.602;8.722;2022-09-01T01:17:33;5.23;;;4.00;;
4650;SDS011;2338;49.602;8.722;2022-09-01T01:20:19;5.00;;;3.50;;
4650;SDS011;2338;49.602;8.722;2022-09-01T01:23:29;4.47;;;3.47;;
4650;SDS011;2338;49.602;8.722;2022-09-01T01:26:22;5.73;;;4.20;;
4650;SDS011;2338;49.602;8.722;2022-09-01T01:29:08;5.47;;;4.10;;
4650;SDS011;2338;49.602;8.722;2022-09-01T01:31:54;4.83;;;3.50;;
4650;SDS011;2338;49.602;8.722;2022-09-01T01:34:40;4.67;;;3.80;;
4650;SDS011;2338;49.602;8.722;2022-09-01T01:37:27;4.13;;;3.00;;
4650;SDS011;2338;49.602;8.722;2022-09-01T01:40:14;4.53;;;3.60;;
4650;SDS011;2338;49.602;8.722;2022-09-01T01:43:04;4.47;;;3.60;;
4650;SDS011;2338;49.602;8.722;2022-09-01T01:45:52;4.80;;;3.77;;
4650;SDS011;2338;49.602;8.722;2022-09-01T01:48:41;5.73;;;4.00;;
4650;SDS011;2338;49.602;8.722;2022-09-01T01:51:27;4.47;;;3.80;;
4650;SDS011;2338;49.602;8.722;2022-09-01T01:54:15;5.17;;;3.63;;
4650;SDS011;2338;49.602;8.722;2022-09-01T01:57:02;4.70;;;3.63;;
4650;SDS011;2338;49.602;8.722;2022-09-01T01:59:50;8.20;;;3.53;;
4650;SDS011;2338;49.602;8.722;2022-09-01T02:02:37;6.47;;;3.87;;
4650;SDS011;2338;49.602;8.722;2022-09-01T02:05:24;5.90;;;4.50;;
4650;SDS011;2338;49.602;8.722;2022-09-01T02:08:11;5.67;;;4.27;;
4650;SDS011;2338;49.602;8.722;2022-09-01T02:11:01;4.37;;;3.83;;
4650;SDS011;2338;49.602;8.722;2022-09-01T02:13:48;5.50;;;4.20;;
4650;SDS011;2338;49.602;8.722;2022-09-01T02:16:35;4.40;;;3.93;;
4650;SDS011;2338;49.602;8.722;2022-09-01T02:19:20;6.47;;;4.20;;
4650;SDS011;2338;49.602;8.722;2022-09-01T02:22:06;4.83;;;3.80;;
4650;SDS011;2338;49.602;8.722;2022-09-01T02:24:53;8.17;;;3.80;;
4650;SDS011;2338;49.602;8.722;2022-09-01T02:27:40;6.30;;;4.27;;
4650;SDS011;2338;49.602;8.722;2022-09-01T02:30:26;5.30;;;3.40;;
4650;SDS011;2338;49.602;8.722;2022-09-01T02:33:16;4.80;;;3.30;;
4650;SDS011;2338;49.602;8.722;2022-09-01T02:36:07;4.80;;;3.93;;
4650;SDS011;2338;49.602;8.722;2022-09-01T02:38:56;4.63;;;4.00;;
4650;SDS011;2338;49.602;8.722;2022-09-01T02:41:42;5.93;;;4.00;;
4650;SDS011;2338;49.602;8.722;2022-09-01T02:44:28;6.20;;;3.93;;
4650;SDS011;2338;49.602;8.722;2022-09-01T02:47:15;6.77;;;4.20;;
4650;SDS011;2338;49.602;8.722;2022-09-01T02:50:02;5.60;;;4.20;;
4650;SDS011;2338;49.602;8.722;2022-09-01T02:52:49;4.27;;;3.27;;
4650;SDS011;2338;49.602;8.722;2022-09-01T02:55:37;4.40;;;3.67;;
4650;SDS011;2338;49.602;8.722;2022-09-01T02:58:24;5.57;;;3.30;;
4650;SDS011;2338;49.602;8.722;2022-09-01T03:01:12;5.00;;;3.47;;
4650;SDS011;2338;49.602;8.722;2022-09-01T03:04:00;15.50;;;5.33;;
4650;SDS011;2338;49.602;8.722;2022-09-01T03:06:49;4.60;;;3.93;;
4650;SDS011;2338;49.602;8.722;2022-09-01T03:09:37;6.30;;;3.50;;
4650;SDS011;2338;49.602;8.722;2022-09-01T03:12:24;5.00;;;3.70;;
4650;SDS011;2338;49.602;8.722;2022-09-01T03:15:10;8.50;;;4.10;;
4650;SDS011;2338;49.602;8.722;2022-09-01T03:17:56;12.43;;;4.30;;
4650;SDS011;2338;49.602;8.722;2022-09-01T03:20:44;4.53;;;3.77;;
4650;SDS011;2338;49.602;8.722;2022-09-01T03:23:31;6.00;;;4.13;;
4650;SDS011;2338;49.602;8.722;2022-09-01T03:26:18;6.50;;;4.00;;
4650;SDS011;2338;49.602;8.722;2022-09-01T03:29:05;5.90;;;4.70;;
4650;SDS011;2338;49.602;8.722;2022-09-01T03:31:51;6.07;;;3.80;;
4650;SDS011;2338;49.602;8.722;2022-09-01T03:34:37;6.20;;;4.60;;
4650;SDS011;2338;49.602;8.722;2022-09-01T03:37:22;4.00;;;3.27;;
4650;SDS011;2338;49.602;8.722;2022-09-01T03:40:10;5.13;;;3.80;;
4650;SDS011;2338;49.602;8.722;2022-09-01T03:42:56;9.40;;;4.20;;
4650;SDS011;2338;49.602;8.722;2022-09-01T03:45:42;4.60;;;4.20;;
4650;SDS011;2338;49.602;8.722;2022-09-01T03:48:29;7.70;;;4.70;;
4650;SDS011;2338;49.602;8.722;2022-09-01T03:51:15;5.67;;;3.97;;
4650;SDS011;2338;49.602;8.722;2022-09-01T03:54:03;6.73;;;4.03;;
4650;SDS011;2338;49.602;8.722;2022-09-01T03:56:50;6.80;;;4.93;;
4650;SDS011;2338;49.602;8.722;2022-09-01T03:59:37;11.03;;;4.63;;
4650;SDS011;2338;49.602;8.722;2022-09-01T04:02:26;4.70;;;4.00;;
4650;SDS011;2338;49.602;8.722;2022-09-01T04:05:13;5.87;;;4.50;;
4650;SDS011;2338;49.602;8.722;2022-09-01T04:08:00;5.17;;;4.40;;
4650;SDS011;2338;49.602;8.722;2022-09-01T04:10:49;5.47;;;4.30;;
4650;SDS011;2338;49.602;8.722;2022-09-01T04:13:38;6.30;;;4.50;;
4650;SDS011;2338;49.602;8.722;2022-09-01T04:16:25;5.50;;;4.40;;
4650;SDS011;2338;49.602;8.722;2022-09-01T04:19:32;4.90;;;4.17;;
4650;SDS011;2338;49.602;8.722;2022-09-01T04:22:21;5.40;;;4.90;;
4650;SDS011;2338;49.602;8.722;2022-09-01T04:25:11;5.90;;;5.00;;
4650;SDS011;2338;49.602;8.722;2022-09-01T04:27:58;5.80;;;4.20;;
4650;SDS011;2338;49.602;8.722;2022-09-01T04:30:56;5.20;;;4.40;;
4650;SDS011;2338;49.602;8.722;2022-09-01T04:33:42;6.20;;;4.30;;
4650;SDS011;2338;49.602;8.722;2022-09-01T04:36:29;7.37;;;4.37;;
4650;SDS011;2338;49.602;8.722;2022-09-01T04:39:16;5.40;;;4.30;;
4650;SDS011;2338;49.602;8.722;2022-09-01T04:42:02;4.60;;;3.97;;
4650;SDS011;2338;49.602;8.722;2022-09-01T04:44:52;5.20;;;3.87;;
4650;SDS011;2338;49.602;8.722;2022-09-01T04:47:41;6.80;;;4.67;;
4650;SDS011;2338;49.602;8.722;2022-09-01T04:50:28;6.27;;;5.10;;
4650;SDS011;2338;49.602;8.722;2022-09-01T04:53:15;7.33;;;5.10;;
4650;SDS011;2338;49.602;8.722;2022-09-01T04:56:01;5.87;;;4.50;;
4650;SDS011;2338;49.602;8.722;2022-09-01T04:58:48;6.17;;;4.53;;
4650;SDS011;2338;49.602;8.722;2022-09-01T05:01:34;5.20;;;4.50;;
4650;SDS011;2338;49.602;8.722;2022-09-01T05:04:28;6.70;;;4.70;;
4650;SDS011;2338;49.602;8.722;2022-09-01T05:07:16;5.33;;;4.60;;
4650;SDS011;2338;49.602;8.722;2022-09-01T05:10:02;6.90;;;4.47;;
4650;SDS011;2338;49.602;8.722;2022-09-01T05:12:48;5.60;;;4.60;;
4650;SDS011;2338;49.602;8.722;2022-09-01T05:15:36;6.10;;;4.80;;
4650;SDS011;2338;49.602;8.722;2022-09-01T05:18:22;4.40;;;4.00;;
4650;SDS011;2338;49.602;8.722;2022-09-01T05:21:09;4.73;;;4.30;;
4650;SDS011;2338;49.602;8.722;2022-09-01T05:23:56;5.30;;;4.53;;
4650;SDS011;2338;49.602;8.722;2022-09-01T05:26:43;6.20;;;5.60;;
4650;SDS011;2338;49.602;8.722;2022-09-01T05:29:33;6.90;;;4.70;;
4650;SDS011;2338;49.602;8.722;2022-09-01T05:32:20;5.80;;;5.20;;
4650;SDS011;2338;49.602;8.722;2022-09-01T05:35:08;5.50;;;4.83;;
4650;SDS011;2338;49.602;8.722;2022-09-01T05:37:55;9.67;;;5.47;;
4650;SDS011;2338;49.602;8.722;2022-09-01T05:40:42;8.17;;;5.03;;
4650;SDS011;2338;49.602;8.722;2022-09-01T05:43:29;8.90;;;4.33;;
4650;SDS011;2338;49.602;8.722;2022-09-01T05:46:17;6.60;;;4.73;;
4650;SDS011;2338;49.602;8.722;2022-09-01T05:49:04;6.40;;;5.23;;
4650;SDS011;2338;49.602;8.722;2022-09-01T05:51:52;6.60;;;4.20;;
4650;SDS011;2338;49.602;8.722;2022-09-01T05:54:42;9.10;;;4.70;;
4650;SDS011;2338;49.602;8.722;2022-09-01T05:57:30;5.50;;;4.77;;
4650;SDS011;2338;49.602;8.722;2022-09-01T06:00:18;6.30;;;4.60;;
4650;SDS011;2338;49.602;8.722;2022-09-01T06:03:03;12.10;;;4.57;;
4650;SDS011;2338;49.602;8.722;2022-09-01T06:05:49;8.00;;;4.83;;
4650;SDS011;2338;49.602;8.722;2022-09-01T06:08:36;7.17;;;5.10;;
4650;SDS011;2338;49.602;8.722;2022-09-01T06:11:27;5.97;;;4.30;;
4650;SDS011;2338;49.602;8.722;2022-09-01T06:14:16;5.77;;;5.07;;
4650;SDS011;2338;49.602;8.722;2022-09-01T06:17:03;7.17;;;4.83;;
4650;SDS011;2338;49.602;8.722;2022-09-01T06:19:52;4.47;;;3.97;;
4650;SDS011;2338;49.602;8.722;2022-09-01T06:22:39;9.00;;;4.40;;
4650;SDS011;2338;49.602;8.722;2022-09-01T06:25:26;9.13;;;4.80;;
4650;SDS011;2338;49.602;8.722;2022-09-01T06:28:15;5.33;;;4.70;;
4650;SDS011;2338;49.602;8.722;2022-09-01T06:31:06;5.53;;;4.20;;
4650;SDS011;2338;49.602;8.722;2022-09-01T06:33:52;11.30;;;5.20;;
4650;SDS011;2338;49.602;8.722;2022-09-01T06:36:40;10.13;;;5.60;;
4650;SDS011;2338;49.602;8.722;2022-09-01T06:39:25;5.57;;;4.33;;
4650;SDS011;2338;49.602;8.722;2022-09-01T06:42:11;5.53;;;4.00;;
4650;SDS011;2338;49.602;8.722;2022-09-01T06:44:59;6.30;;;4.23;;
4650;SDS011;2338;49.602;8.722;2022-09-01T06:47:46;4.73;;;4.00;;
4650;SDS011;2338;49.602;8.722;2022-09-01T06:50:34;5.03;;;3.77;;
4650;SDS011;2338;49.602;8.722;2022-09-01T06:53:20;4.37;;;3.80;;
4650;SDS011;2338;49.602;8.722;2022-09-01T06:56:06;11.50;;;5.50;;
4650;SDS011;2338;49.602;8.722;2022-09-01T06:58:53;5.37;;;4.20;;
4650;SDS011;2338;49.602;8.722;2022-09-01T07:01:40;6.40;;;4.37;;
4650;SDS011;2338;49.602;8.722;2022-09-01T07:04:26;5.83;;;4.37;;
4650;SDS011;2338;49.602;8.722;2022-09-01T07:07:13;4.53;;;3.57;;
4650;SDS011;2338;49.602;8.722;2022-09-01T07:09:58;5.43;;;4.13;;
4650;SDS011;2338;49.602;8.722;2022-09-01T07:12:44;7.57;;;3.70;;
4650;SDS011;2338;49.602;8.722;2022-09-01T07:15:30;4.80;;;3.90;;
4650;SDS011;2338;49.602;8.722;2022-09-01T07:18:18;7.13;;;3.90;;
4650;SDS011;2338;49.602;8.722;2022-09-01T07:21:05;5.80;;;4.00;;
4650;SDS011;2338;49.602;8.722;2022-09-01T07:23:51;5.10;;;3.93;;
4650;SDS011;2338;49.602;8.722;2022-09-01T07:26:38;6.47;;;3.60;;
4650;SDS011;2338;49.602;8.722;2022-09-01T07:29:25;4.90;;;4.10;;
4650;SDS011;2338;49.602;8.722;2022-09-01T07:32:11;5.40;;;4.17;;
4650;SDS011;2338;49.602;8.722;2022-09-01T07:35:00;5.00;;;3.83;;
4650;SDS011;2338;49.602;8.722;2022-09-01T07:37:46;5.53;;;4.00;;
4650;SDS011;2338;49.602;8.722;2022-09-01T07:40:33;8.00;;;3.60;;
4650;SDS011;2338;49.602;8.722;2022-09-01T07:43:21;14.00;;;4.20;;
4650;SDS011;2338;49.602;8.722;2022-09-01T07:46:09;6.23;;;4.60;;
4650;SDS011;2338;49.602;8.722;2022-09-01T07:48:55;5.80;;;4.30;;
4650;SDS011;2338;49.602;8.722;2022-09-01T07:51:42;6.00;;;4.47;;
4650;SDS011;2338;49.602;8.722;2022-09-01T07:54:33;5.20;;;4.30;;
4650;SDS011;2338;49.602;8.722;2022-09-01T07:57:19;5.50;;;4.20;;
4650;SDS011;2338;49.602;8.722;2022-09-01T08:00:06;5.33;;;3.97;;
4650;SDS011;2338;49.602;8.722;2022-09-01T08:02:52;7.83;;;3.73;;
4650;SDS011;2338;49.602;8.722;2022-09-01T08:05:38;4.43;;;3.67;;
4650;SDS011;2338;49.602;8.722;2022-09-01T08:08:26;4.70;;;3.63;;
4650;SDS011;2338;49.602;8.722;2022-09-01T08:11:14;4.43;;;3.53;;
4650;SDS011;2338;49.602;8.722;2022-09-01T08:14:01;3.60;;;3.30;;
4650;SDS011;2338;49.602;8.722;2022-09-01T08:16:47;8.27;;;3.13;;
4650;SDS011;2338;49.602;8.722;2022-09-01T08:19:33;6.90;;;3.50;;
4650;SDS011;2338;49.602;8.722;2022-09-01T08:22:18;5.90;;;3.80;;
4650;SDS011;2338;49.602;8.722;2022-09-01T08:25:08;5.43;;;3.70;;
4650;SDS011;2338;49.602;8.722;2022-09-01T08:27:54;5.20;;;3.70;;
4650;SDS011;2338;49.602;8.722;2022-09-01T08:30:41;5.13;;;4.30;;
4650;SDS011;2338;49.602;8.722;2022-09-01T08:33:28;6.07;;;4.00;;
4650;SDS011;2338;49.602;8.722;2022-09-01T08:36:18;5.17;;;3.70;;
4650;SDS011;2338;49.602;8.722;2022-09-01T08:39:04;4.93;;;3.90;;
4650;SDS011;2338;49.602;8.722;2022-09-01T08:41:52;8.80;;;4.20;;
4650;SDS011;2338;49.602;8.722;2022-09-01T08:44:43;7.07;;;4.23;;
4650;SDS011;2338;49.602;8.722;2022-09-01T08:47:36;5.47;;;3.90;;
4650;SDS011;2338;49.602;8.722;2022-09-01T08:50:22;5.07;;;4.27;;
4650;SDS011;2338;49.602;8.722;2022-09-01T08:53:10;5.60;;;4.43;;
4650;SDS011;2338;49.602;8.722;2022-09-01T08:56:03;5.70;;;4.00;;
4650;SDS011;2338;49.602;8.722;2022-09-01T08:58:51;4.83;;;3.33;;
4650;SDS011;2338;49.602;8.722;2022-09-01T09:01:39;5.30;;;4.20;;
4650;SDS011;2338;49.602;8.722;2022-09-01T09:04:42;5.27;;;4.03;;
4650;SDS011;2338;49.602;8.722;2022-09-01T09:07:42;5.53;;;3.90;;
4650;SDS011;2338;49.602;8.722;2022-09-01T09:10:42;5.67;;;3.70;;
4650;SDS011;2338;49.602;8.722;2022-09-01T09:13:39;4.73;;;4.20;;
4650;SDS011;2338;49.602;8.722;2022-09-01T09:16:34;7.90;;;4.33;;
4650;SDS011;2338;49.602;8.722;2022-09-01T09:19:24;4.47;;;3.37;;
4650;SDS011;2338;49.602;8.722;2022-09-01T09:22:13;4.83;;;3.50;;
4650;SDS011;2338;49.602;8.722;2022-09-01T09:25:02;4.27;;;3.00;;
4650;SDS011;2338;49.602;8.722;2022-09-01T09:27:51;5.00;;;4.00;;
4650;SDS011;2338;49.602;8.722;2022-09-01T09:30:37;4.63;;;3.53;;
4650;SDS011;2338;49.602;8.722;2022-09-01T09:33:34;5.07;;;4.00;;
4650;SDS011;2338;49.602;8.722;2022-09-01T09:36:22;4.37;;;3.23;;
4650;SDS011;2338;49.602;8.722;2022-09-01T09:39:16;4.63;;;3.80;;
4650;SDS011;2338;49.602;8.722;2022-09-01T09:42:04;4.47;;;3.60;;
4650;SDS011;2338;49.602;8.722;2022-09-01T09:44:53;4.27;;;3.40;;
4650;SDS011;2338;49.602;8.722;2022-09-01T09:47:40;6.63;;;3.40;;
4650;SDS011;2338;49.602;8.722;2022-09-01T09:50:29;4.63;;;3.40;;
4650;SDS011;2338;49.602;8.722;2022-09-01T09:53:24;6.57;;;3.70;;
4650;SDS011;2338;49.602;8.722;2022-09-01T09:56:15;7.10;;;3.93;;
4650;SDS011;2338;49.602;8.722;2022-09-01T09:59:03;4.57;;;4.10;;
4650;SDS011;2338;49.602;8.722;2022-09-01T10:02:23;4.70;;;3.53;;
4650;SDS011;2338;49.602;8.722;2022-09-01T10:05:34;7.57;;;3.80;;
4650;SDS011;2338;49.602;8.722;2022-09-01T10:08:35;3.80;;;3.10;;
4650;SDS011;2338;49.602;8.722;2022-09-01T10:11:28;5.53;;;3.03;;
4650;SDS011;2338;49.602;8.722;2022-09-01T10:14:20;3.20;;;2.73;;
4650;SDS011;2338;49.602;8.722;2022-09-01T10:17:09;4.10;;;3.40;;
4650;SDS011;2338;49.602;8.722;2022-09-01T10:19:58;5.30;;;3.60;;
4650;SDS011;2338;49.602;8.722;2022-09-01T10:22:50;5.33;;;3.30;;
4650;SDS011;2338;49.602;8.722;2022-09-01T10:25:36;3.57;;;2.83;;
4650;SDS011;2338;49.602;8.722;2022-09-01T10:28:22;5.70;;;2.90;;
4650;SDS011;2338;49.602;8.722;2022-09-01T10:31:08;4.50;;;3.27;;
4650;SDS011;2338;49.602;8.722;2022-09-01T10:33:53;7.63;;;3.13;;
4650;SDS011;2338;49.602;8.722;2022-09-01T10:36:40;3.37;;;2.50;;
4650;SDS011;2338;49.602;8.722;2022-09-01T10:39:29;6.27;;;3.50;;
4650;SDS011;2338;49.602;8.722;2022-09-01T10:42:16;4.17;;;2.83;;
4650;SDS011;2338;49.602;8.722;2022-09-01T10:45:02;3.90;;;3.27;;
4650;SDS011;2338;49.602;8.722;2022-09-01T10:47:48;4.70;;;3.20;;
4650;SDS011;2338;49.602;8.722;2022-09-01T10:50:34;4.33;;;3.73;;
4650;SDS011;2338;49.602;8.722;2022-09-01T10:53:38;5.20;;;3.90;;
4650;SDS011;2338;49.602;8.722;2022-09-01T10:56:26;5.97;;;3.87;;
4650;SDS011;2338;49.602;8.722;2022-09-01T10:59:23;6.70;;;3.70;;
4650;SDS011;2338;49.602;8.722;2022-09-01T11:02:13;3.83;;;3.10;;
4650;SDS011;2338;49.602;8.722;2022-09-01T11:05:12;4.07;;;3.30;;
4650;SDS011;2338;49.602;8.722;2022-09-01T11:11:10;5.30;;;3.13;;
4650;SDS011;2338;49.602;8.722;2022-09-01T11:14:17;4.67;;;3.83;;
4650;SDS011;2338;49.602;8.722;2022-09-01T11:17:12;6.40;;;3.30;;
4650;SDS011;2338;49.602;8.722;2022-09-01T11:20:02;7.50;;;3.00;;
4650;SDS011;2338;49.602;8.722;2022-09-01T11:22:57;4.07;;;2.97;;
4650;SDS011;2338;49.602;8.722;2022-09-01T11:25:46;13.97;;;3.27;;
4650;SDS011;2338;49.602;8.722;2022-09-01T11:28:40;4.60;;;2.97;;
4650;SDS011;2338;49.602;8.722;2022-09-01T11:31:34;4.53;;;3.10;;
4650;SDS011;2338;49.602;8.722;2022-09-01T11:34:25;4.03;;;3.30;;
4650;SDS011;2338;49.602;8.722;2022-09-01T11:37:14;4.03;;;3.37;;
4650;SDS011;2338;49.602;8.722;2022-09-01T11:40:03;5.00;;;2.43;;
4650;SDS011;2338;49.602;8.722;2022-09-01T11:42:52;4.27;;;3.20;;
4650;SDS011;2338;49.602;8.722;2022-09-01T11:45:42;4.70;;;3.17;;
4650;SDS011;2338;49.602;8.722;2022-09-01T11:48:41;4.80;;;3.17;;
4650;SDS011;2338;49.602;8.722;2022-09-01T11:51:37;3.93;;;2.90;;
4650;SDS011;2338;49.602;8.722;2022-09-01T11:54:27;5.30;;;3.33;;
4650;SDS011;2338;49.602;8.722;2022-09-01T11:57:22;4.63;;;2.83;;
4650;SDS011;2338;49.602;8.722;2022-09-01T12:00:11;3.20;;;2.47;;
4650;SDS011;2338;49.602;8.722;2022-09-01T12:02:59;3.10;;;2.67;;
4650;SDS011;2338;49.602;8.722;2022-09-01T12:05:46;4.77;;;3.00;;
4650;SDS011;2338;49.602;8.722;2022-09-01T12:08:34;5.10;;;3.23;;
4650;SDS011;2338;49.602;8.722;2022-09-01T12:11:23;4.77;;;3.57;;
4650;SDS011;2338;49.602;8.722;2022-09-01T12:14:18;4.10;;;3.10;;
4650;SDS011;2338;49.602;8.722;2022-09-01T12:17:05;3.83;;;3.00;;
4650;SDS011;2338;49.602;8.722;2022-09-01T12:19:51;5.43;;;3.30;;
4650;SDS011;2338;49.602;8.722;2022-09-01T12:22:38;4.10;;;2.97;;
4650;SDS011;2338;49.602;8.722;2022-09-01T12:25:27;3.70;;;3.00;;
4650;SDS011;2338;49.602;8.722;2022-09-01T12:28:14;4.90;;;3.30;;
4650;SDS011;2338;49.602;8.722;2022-09-01T12:31:01;3.80;;;2.70;;
4650;SDS011;2338;49.602;8.722;2022-09-01T12:33:50;4.40;;;3.00;;
4650;SDS011;2338;49.602;8.722;2022-09-01T12:36:37;6.00;;;3.27;;
4650;SDS011;2338;49.602;8.722;2022-09-01T12:39:24;3.10;;;2.30;;
4650;SDS011;2338;49.602;8.722;2022-09-01T12:42:24;3.77;;;2.60;;
4650;SDS011;2338;49.602;8.722;2022-09-01T12:45:12;8.97;;;2.70;;
4650;SDS011;2338;49.602;8.722;2022-09-01T12:48:24;4.80;;;2.57;;
4650;SDS011;2338;49.602;8.722;2022-09-01T12:51:15;9.03;;;2.80;;
4650;SDS011;2338;49.602;8.722;2022-09-01T12:54:04;3.97;;;2.57;;
4650;SDS011;2338;49.602;8.722;2022-09-01T12:56:51;3.17;;;2.73;;
4650;SDS011;2338;49.602;8.722;2022-09-01T12:59:36;3.80;;;2.70;;
4650;SDS011;2338;49.602;8.722;2022-09-01T13:02:26;6.53;;;2.70;;
4650;SDS011;2338;49.602;8.722;2022-09-01T13:05:19;4.67;;;3.00;;
4650;SDS011;2338;49.602;8.722;2022-09-01T13:08:07;4.17;;;3.37;;
4650;SDS011;2338;49.602;8.722;2022-09-01T13:10:54;4.50;;;2.90;;
4650;SDS011;2338;49.602;8.722;2022-09-01T13:13:44;5.33;;;3.83;;
4650;SDS011;2338;49.602;8.722;2022-09-01T13:16:31;11.20;;;3.23;;
4650;SDS011;2338;49.602;8.722;2022-09-01T13:19:16;8.20;;;3.40;;
4650;SDS011;2338;49.602;8.722;2022-09-01T13:22:02;3.90;;;2.40;;
4650;SDS011;2338;49.602;8.722;2022-09-01T13:24:47;5.43;;;3.10;;
4650;SDS011;2338;49.602;8.722;2022-09-01T13:27:33;5.20;;;2.60;;
4650;SDS011;2338;49.602;8.722;2022-09-01T13:30:21;5.57;;;3.17;;
4650;SDS011;2338;49.602;8.722;2022-09-01T13:33:11;6.30;;;2.97;;
4650;SDS011;2338;49.602;8.722;2022-09-01T13:35:56;3.03;;;2.67;;
4650;SDS011;2338;49.602;8.722;2022-09-01T13:38:42;4.30;;;3.20;;
4650;SDS011;2338;49.602;8.722;2022-09-01T13:41:27;3.50;;;2.90;;
4650;SDS011;2338;49.602;8.722;2022-09-01T13:44:14;6.60;;;3.73;;
4650;SDS011;2338;49.602;8.722;2022-09-01T13:47:02;4.23;;;3.10;;
4650;SDS011;2338;49.602;8.722;2022-09-01T13:49:48;3.97;;;2.80;;
4650;SDS011;2338;49.602;8.722;2022-09-01T13:52:33;3.50;;;3.03;;
4650;SDS011;2338;49.602;8.722;2022-09-01T13:55:20;3.00;;;2.60;;
4650;SDS011;2338;49.602;8.722;2022-09-01T13:58:07;4.13;;;3.03;;
4650;SDS011;2338;49.602;8.722;2022-09-01T14:00:53;5.30;;;3.27;;
4650;SDS011;2338;49.602;8.722;2022-09-01T14:03:43;4.50;;;3.10;;
4650;SDS011;2338;49.602;8.722;2022-09-01T14:06:29;4.93;;;3.57;;
4650;SDS011;2338;49.602;8.722;2022-09-01T14:09:14;7.40;;;3.30;;
4650;SDS011;2338;49.602;8.722;2022-09-01T14:12:00;3.50;;;2.50;;
4650;SDS011;2338;49.602;8.722;2022-09-01T14:14:48;4.80;;;2.80;;
4650;SDS011;2338;49.602;8.722;2022-09-01T14:17:35;5.80;;;3.17;;
4650;SDS011;2338;49.602;8.722;2022-09-01T14:20:23;6.07;;;3.10;;
4650;SDS011;2338;49.602;8.722;2022-09-01T14:23:12;3.97;;;2.80;;
4650;SDS011;2338;49.602;8.722;2022-09-01T14:25:59;4.60;;;3.10;;
4650;SDS011;2338;49.602;8.722;2022-09-01T14:28:45;3.60;;;2.77;;
4650;SDS011;2338;49.602;8.722;2022-09-01T14:31:32;2.83;;;2.17;;
4650;SDS011;2338;49.602;8.722;2022-09-01T14:34:18;3.40;;;2.60;;
4650;SDS011;2338;49.602;8.722;2022-09-01T14:37:06;6.27;;;2.57;;
4650;SDS011;2338;49.602;8.722;2022-09-01T14:39:52;4.70;;;2.77;;
4650;SDS011;2338;49.602;8.722;2022-09-01T14:42:40;5.40;;;2.77;;
4650;SDS011;2338;49.602;8.722;2022-09-01T14:45:29;3.30;;;2.63;;
4650;SDS011;2338;49.602;8.722;2022-09-01T14:48:16;3.67;;;2.40;;
4650;SDS011;2338;49.602;8.722;2022-09-01T14:51:03;5.97;;;2.63;;
4650;SDS011;2338;49.602;8.722;2022-09-01T14:53:51;4.10;;;2.70;;
4650;SDS011;2338;49.602;8.722;2022-09-01T14:56:37;6.97;;;2.73;;
4650;SDS011;2338;49.602;8.722;2022-09-01T14:59:24;4.13;;;2.50;;
4650;SDS011;2338;49.602;8.722;2022-09-01T15:02:09;6.03;;;2.97;;
4650;SDS011;2338;49.602;8.722;2022-09-01T15:04:55;3.80;;;3.10;;
4650;SDS011;2338;49.602;8.722;2022-09-01T15:07:41;3.33;;;2.60;;
4650;SDS011;2338;49.602;8.722;2022-09-01T15:10:29;4.53;;;2.83;;
4650;SDS011;2338;49.602;8.722;2022-09-01T15:13:15;6.43;;;2.90;;
4650;SDS011;2338;49.602;8.722;2022-09-01T15:16:00;4.03;;;2.50;;
4650;SDS011;2338;49.602;8.722;2022-09-01T15:18:46;4.90;;;2.70;;
4650;SDS011;2338;49.602;8.722;2022-09-01T15:21:32;5.83;;;2.67;;
4650;SDS011;2338;49.602;8.722;2022-09-01T15:24:18;3.70;;;2.27;;
4650;SDS011;2338;49.602;8.722;2022-09-01T15:27:07;3.53;;;2.17;;
4650;SDS011;2338;49.602;8.722;2022-09-01T15:29:53;5.17;;;2.93;;
4650;SDS011;2338;49.602;8.722;2022-09-01T15:32:40;3.30;;;2.30;;
4650;SDS011;2338;49.602;8.722;2022-09-01T15:35:28;6.33;;;2.20;;
4650;SDS011;2338;49.602;8.722;2022-09-01T15:38:14;3.87;;;2.70;;
4650;SDS011;2338;49.602;8.722;2022-09-01T15:41:00;3.20;;;2.40;;
4650;SDS011;2338;49.602;8.722;2022-09-01T15:43:47;3.43;;;2.90;;
4650;SDS011;2338;49.602;8.722;2022-09-01T15:46:33;4.90;;;2.70;;
4650;SDS011;2338;49.602;8.722;2022-09-01T15:49:21;3.90;;;2.50;;
4650;SDS011;2338;49.602;8.722;2022-09-01T15:52:06;3.83;;;2.40;;
4650;SDS011;2338;49.602;8.722;2022-09-01T15:54:52;10.57;;;2.60;;
4650;SDS011;2338;49.602;8.722;2022-09-01T15:57:38;3.60;;;2.50;;
4650;SDS011;2338;49.602;8.722;2022-09-01T16:00:25;6.03;;;2.60;;
4650;SDS011;2338;49.602;8.722;2022-09-01T16:03:13;3.83;;;2.47;;
4650;SDS011;2338;49.602;8.722;2022-09-01T16:05:59;4.37;;;2.30;;
4650;SDS011;2338;49.602;8.722;2022-09-01T16:08:45;2.83;;;2.30;;
4650;SDS011;2338;49.602;8.722;2022-09-01T16:11:31;4.67;;;2.13;;
4650;SDS011;2338;49.602;8.722;2022-09-01T16:14:19;4.47;;;2.60;;
4650;SDS011;2338;49.602;8.722;2022-09-01T16:17:08;6.43;;;2.70;;
4650;SDS011;2338;49.602;8.722;2022-09-01T16:20:03;3.57;;;2.47;;
4650;SDS011;2338;49.602;8.722;2022-09-01T16:22:54;3.47;;;2.40;;
4650;SDS011;2338;49.602;8.722;2022-09-01T16:25:41;5.03;;;3.10;;
4650;SDS011;2338;49.602;8.722;2022-09-01T16:28:27;8.80;;;2.50;;
4650;SDS011;2338;49.602;8.722;2022-09-01T16:31:19;4.17;;;2.23;;
4650;SDS011;2338;49.602;8.722;2022-09-01T16:34:10;6.80;;;3.00;;
4650;SDS011;2338;49.602;8.722;2022-09-01T16:37:02;3.87;;;2.47;;
4650;SDS011;2338;49.602;8.722;2022-09-01T16:39:55;4.03;;;2.93;;
4650;SDS011;2338;49.602;8.722;2022-09-01T16:42:47;3.63;;;2.50;;
4650;SDS011;2338;49.602;8.722;2022-09-01T16:45:42;2.97;;;2.47;;
4650;SDS011;2338;49.602;8.722;2022-09-01T16:48:36;4.20;;;2.93;;
4650;SDS011;2338;49.602;8.722;2022-09-01T16:51:29;4.33;;;2.90;;
4650;SDS011;2338;49.602;8.722;2022-09-01T16:54:20;5.07;;;2.80;;
4650;SDS011;2338;49.602;8.722;2022-09-01T16:57:13;5.50;;;2.80;;
4650;SDS011;2338;49.602;8.722;2022-09-01T17:00:09;7.20;;;2.90;;
4650;SDS011;2338;49.602;8.722;2022-09-01T17:02:58;6.03;;;3.10;;
4650;SDS011;2338;49.602;8.722;2022-09-01T17:05:53;3.27;;;2.70;;
4650;SDS011;2338;49.602;8.722;2022-09-01T17:08:43;4.00;;;2.80;;
4650;SDS011;2338;49.602;8.722;2022-09-01T17:11:40;3.87;;;2.53;;
4650;SDS011;2338;49.602;8.722;2022-09-01T17:14:32;6.83;;;2.83;;
4650;SDS011;2338;49.602;8.722;2022-09-01T17:17:24;4.83;;;2.73;;
4650;SDS011;2338;49.602;8.722;2022-09-01T17:20:16;3.53;;;2.70;;
4650;SDS011;2338;49.602;8.722;2022-09-01T17:23:09;6.20;;;2.37;;
4650;SDS011;2338;49.602;8.722;2022-09-01T17:26:01;3.40;;;2.10;;
4650;SDS011;2338;49.602;8.722;2022-09-01T17:28:51;3.80;;;2.10;;
4650;SDS011;2338;49.602;8.722;2022-09-01T17:31:42;3.83;;;2.60;;